sensor_id;sensor_type;location;lat;lon;timestamp;temperature;humidity
78982;DHT22;68380;50.958;3.592;2023-03-14T06:13:43;8.10;90.20
78982;DHT22;68380;50.958;3.592;2023-03-14T06:16:11;8.10;90.10
78982;DHT22;68380;50.958;3.592;2023-03-14T06:18:39;8.00;89.40
78982;DHT22;68380;50.958;3.592;2023-03-14T06:21:07;7.90;88.70
78982;DHT22;68380;50.958;3.592;2023-03-14T06:23:35;7.80;89.50
78982;DHT22;68380;50.958;3.592;2023-03-14T06:26:03;7.90;90.00
78982;DHT22;68380;50.958;3.592;2023-03-14T06:28:31;7.90;90.40
78982;DHT22;68380;50.958;3.592;2023-03-14T06:30:59;7.80;89.90
78982;DHT22;68380;50.958;3.592;2023-03-14T06:33:27;7.80;90.20
78982;DHT22;68380;50.958;3.592;2023-03-14T06:35:55;7.70;90.50
78982;DHT22;68380;50.958;3.592;2023-03-14T06:38:23;7.80;90.50
78982;DHT22;68380;50.958;3.592;2023-03-14T06:40:51;7.70;90.70
78982;DHT22;68380;50.958;3.592;2023-03-14T06:43:19;7.80;91.00
78982;DHT22;68380;50.958;3.592;2023-03-14T06:45:46;7.70;89.00
78982;DHT22;68380;50.958;3.592;2023-03-14T06:48:14;7.80;88.50
78982;DHT22;68380;50.958;3.592;2023-03-14T06:50:42;7.80;89.50
78982;DHT22;68380;50.958;3.592;2023-03-14T06:53:10;7.70;90.00
78982;DHT22;68380;50.958;3.592;2023-03-14T06:55:38;7.70;90.50
78982;DHT22;68380;50.958;3.592;2023-03-14T06:58:05;7.80;90.20
78982;DHT22;68380;50.958;3.592;2023-03-14T07:00:35;7.90;90.20
78982;DHT22;68380;50.958;3.592;2023-03-14T07:03:03;7.90;90.10
78982;DHT22;68380;50.958;3.592;2023-03-14T07:05:30;8.00;90.30
78982;DHT22;68380;50.958;3.592;2023-03-14T07:07:58;7.90;89.80
78982;DHT22;68380;50.958;3.592;2023-03-14T07:10:26;7.80;89.00
78982;DHT22;68380;50.958;3.592;2023-03-14T07:12:53;7.80;89.10
78982;DHT22;68380;50.958;3.592;2023-03-14T07:15:21;7.80;89.40
78982;DHT22;68380;50.958;3.592;2023-03-14T07:17:49;7.80;89.10
78982;DHT22;68380;50.958;3.592;2023-03-14T07:20:17;7.80;88.90
78982;DHT22;68380;50.958;3.592;2023-03-14T07:22:47;7.70;90.10
78982;DHT22;68380;50.958;3.592;2023-03-14T07:25:16;7.80;88.40
78982;DHT22;68380;50.958;3.592;2023-03-14T07:27:45;7.70;88.30
78982;DHT22;68380;50.958;3.592;2023-03-14T07:30:14;7.60;88.40
78982;DHT22;68380;50.958;3.592;2023-03-14T07:32:45;7.60;89.00
78982;DHT22;68380;50.958;3.592;2023-03-14T07:35:12;7.50;89.40
78982;DHT22;68380;50.958;3.592;2023-03-14T07:37:40;7.50;89.00
78982;DHT22;68380;50.958;3.592;2023-03-14T07:40:09;7.50;88.80
78982;DHT22;68380;50.958;3.592;2023-03-14T07:42:39;7.40;88.90
78982;DHT22;68380;50.958;3.592;2023-03-14T07:45:08;7.40;88.70
78982;DHT22;68380;50.958;3.592;2023-03-14T07:47:36;7.50;88.80
78982;DHT22;68380;50.958;3.592;2023-03-14T07:50:05;7.50;87.20
78982;DHT22;68380;50.958;3.592;2023-03-14T07:52:33;7.40;87.00
78982;DHT22;68380;50.958;3.592;2023-03-14T07:55:00;7.30;87.00
78982;DHT22;68380;50.958;3.592;2023-03-14T07:57:28;7.30;87.30
78982;DHT22;68380;50.958;3.592;2023-03-14T07:59:56;7.30;86.90
78982;DHT22;68380;50.958;3.592;2023-03-14T08:02:24;7.20;86.60
78982;DHT22;68380;50.958;3.592;2023-03-14T08:04:51;7.10;86.20
78982;DHT22;68380;50.958;3.592;2023-03-14T08:07:20;7.20;86.70
78982;DHT22;68380;50.958;3.592;2023-03-14T08:09:48;7.20;86.50
78982;DHT22;68380;50.958;3.592;2023-03-14T08:12:16;7.20;85.00
78982;DHT22;68380;50.958;3.592;2023-03-14T08:14:44;7.10;84.30
78982;DHT22;68380;50.958;3.592;2023-03-14T08:17:11;7.00;87.30
78982;DHT22;68380;50.958;3.592;2023-03-14T08:19:41;6.90;87.20
78982;DHT22;68380;50.958;3.592;2023-03-14T08:22:09;6.80;86.60
78982;DHT22;68380;50.958;3.592;2023-03-14T08:24:37;6.80;87.30
78982;DHT22;68380;50.958;3.592;2023-03-14T08:27:04;6.80;86.70
78982;DHT22;68380;50.958;3.592;2023-03-14T08:29:32;6.80;87.50
78982;DHT22;68380;50.958;3.592;2023-03-14T08:32:00;6.80;87.10
78982;DHT22;68380;50.958;3.592;2023-03-14T08:34:28;6.90;87.20
78982;DHT22;68380;50.958;3.592;2023-03-14T08:36:56;6.90;85.90
78982;DHT22;68380;50.958;3.592;2023-03-14T08:39:24;6.90;86.60
78982;DHT22;68380;50.958;3.592;2023-03-14T08:41:52;6.90;86.00
78982;DHT22;68380;50.958;3.592;2023-03-14T08:44:19;6.90;85.50
78982;DHT22;68380;50.958;3.592;2023-03-14T08:46:47;7.00;85.20
78982;DHT22;68380;50.958;3.592;2023-03-14T08:49:15;6.90;85.20
78982;DHT22;68380;50.958;3.592;2023-03-14T08:51:42;6.90;84.20
78982;DHT22;68380;50.958;3.592;2023-03-14T08:54:11;7.00;86.50
78982;DHT22;68380;50.958;3.592;2023-03-14T08:56:39;6.90;84.60
78982;DHT22;68380;50.958;3.592;2023-03-14T08:59:06;7.00;84.90
78982;DHT22;68380;50.958;3.592;2023-03-14T09:01:34;7.00;86.00
78982;DHT22;68380;50.958;3.592;2023-03-14T09:04:02;7.10;84.40
78982;DHT22;68380;50.958;3.592;2023-03-14T09:06:30;7.20;85.30
78982;DHT22;68380;50.958;3.592;2023-03-14T09:08:58;7.20;84.10
78982;DHT22;68380;50.958;3.592;2023-03-14T09:11:26;7.30;84.20
78982;DHT22;68380;50.958;3.592;2023-03-14T09:13:54;7.30;81.40
78982;DHT22;68380;50.958;3.592;2023-03-14T09:16:21;7.20;83.10
78982;DHT22;68380;50.958;3.592;2023-03-14T09:18:49;7.20;82.30
78982;DHT22;68380;50.958;3.592;2023-03-14T09:21:19;7.30;83.00
78982;DHT22;68380;50.958;3.592;2023-03-14T09:23:47;7.30;83.00
78982;DHT22;68380;50.958;3.592;2023-03-14T09:26:15;7.10;83.90
78982;DHT22;68380;50.958;3.592;2023-03-14T09:28:43;7.10;82.80
78982;DHT22;68380;50.958;3.592;2023-03-14T09:31:12;7.10;82.90
78982;DHT22;68380;50.958;3.592;2023-03-14T09:33:40;7.10;81.70
78982;DHT22;68380;50.958;3.592;2023-03-14T09:36:08;7.20;84.30
78982;DHT22;68380;50.958;3.592;2023-03-14T09:38:36;7.20;83.00
78982;DHT22;68380;50.958;3.592;2023-03-14T09:41:18;7.30;82.60
78982;DHT22;68380;50.958;3.592;2023-03-14T09:43:48;7.40;80.20
78982;DHT22;68380;50.958;3.592;2023-03-14T09:46:18;7.50;81.50
78982;DHT22;68380;50.958;3.592;2023-03-14T09:48:46;7.40;81.00
78982;DHT22;68380;50.958;3.592;2023-03-14T09:51:17;7.50;83.00
78982;DHT22;68380;50.958;3.592;2023-03-14T09:53:47;7.40;81.90
78982;DHT22;68380;50.958;3.592;2023-03-14T09:56:21;7.50;81.80
78982;DHT22;68380;50.958;3.592;2023-03-14T09:59:21;7.60;80.80
78982;DHT22;68380;50.958;3.592;2023-03-14T10:01:26;7.80;81.00
78982;DHT22;68380;50.958;3.592;2023-03-14T10:03:56;8.00;79.20
78982;DHT22;68380;50.958;3.592;2023-03-14T10:06:29;7.90;78.60
78982;DHT22;68380;50.958;3.592;2023-03-14T10:08:58;7.90;77.50
78982;DHT22;68380;50.958;3.592;2023-03-14T10:11:25;7.70;79.50
78982;DHT22;68380;50.958;3.592;2023-03-14T10:14:08;7.60;81.50
78982;DHT22;68380;50.958;3.592;2023-03-14T10:16:44;7.50;81.60
78982;DHT22;68380;50.958;3.592;2023-03-14T10:19:16;7.30;82.70
78982;DHT22;68380;50.958;3.592;2023-03-14T10:21:52;7.00;83.40
78982;DHT22;68380;50.958;3.592;2023-03-14T10:27:00;6.80;84.70
78982;DHT22;68380;50.958;3.592;2023-03-14T10:29:24;6.50;85.00
78982;DHT22;68380;50.958;3.592;2023-03-14T10:31:55;6.40;85.60
78982;DHT22;68380;50.958;3.592;2023-03-14T10:34:34;6.40;87.00
78982;DHT22;68380;50.958;3.592;2023-03-14T10:37:24;6.40;87.20
78982;DHT22;68380;50.958;3.592;2023-03-14T10:39:58;6.30;87.00
78982;DHT22;68380;50.958;3.592;2023-03-14T10:44:58;6.10;88.10
78982;DHT22;68380;50.958;3.592;2023-03-14T10:47:28;6.10;88.90
78982;DHT22;68380;50.958;3.592;2023-03-14T10:49:56;6.10;89.80
78982;DHT22;68380;50.958;3.592;2023-03-14T10:52:27;6.00;89.40
78982;DHT22;68380;50.958;3.592;2023-03-14T10:55:01;6.10;88.60
78982;DHT22;68380;50.958;3.592;2023-03-14T10:57:29;6.10;89.20
78982;DHT22;68380;50.958;3.592;2023-03-14T10:59:58;6.20;89.10
78982;DHT22;68380;50.958;3.592;2023-03-14T11:02:40;6.10;88.60
78982;DHT22;68380;50.958;3.592;2023-03-14T11:06:25;6.10;89.60
78982;DHT22;68380;50.958;3.592;2023-03-14T11:08:11;6.10;87.60
78982;DHT22;68380;50.958;3.592;2023-03-14T11:10:39;5.90;89.90
78982;DHT22;68380;50.958;3.592;2023-03-14T11:13:30;6.10;89.60
78982;DHT22;68380;50.958;3.592;2023-03-14T11:19:12;6.20;89.30
78982;DHT22;68380;50.958;3.592;2023-03-14T11:24:37;6.20;90.20
78982;DHT22;68380;50.958;3.592;2023-03-14T11:27:10;6.10;90.40
78982;DHT22;68380;50.958;3.592;2023-03-14T11:32:24;6.30;88.30
78982;DHT22;68380;50.958;3.592;2023-03-14T11:34:53;6.50;87.70
78982;DHT22;68380;50.958;3.592;2023-03-14T11:37:29;6.70;86.30
78982;DHT22;68380;50.958;3.592;2023-03-14T11:40:08;6.80;88.00
78982;DHT22;68380;50.958;3.592;2023-03-14T11:42:35;6.80;86.30
78982;DHT22;68380;50.958;3.592;2023-03-14T11:45:04;7.00;85.50
78982;DHT22;68380;50.958;3.592;2023-03-14T11:47:39;7.00;87.80
78982;DHT22;68380;50.958;3.592;2023-03-14T11:53:03;7.00;86.50
78982;DHT22;68380;50.958;3.592;2023-03-14T11:55:24;7.00;87.80
78982;DHT22;68380;50.958;3.592;2023-03-14T11:57:58;7.10;87.90
78982;DHT22;68380;50.958;3.592;2023-03-14T12:00:26;7.20;86.10
78982;DHT22;68380;50.958;3.592;2023-03-14T12:08:43;6.80;87.60
78982;DHT22;68380;50.958;3.592;2023-03-14T12:16:49;6.50;90.00
78982;DHT22;68380;50.958;3.592;2023-03-14T12:19:29;6.50;89.80
78982;DHT22;68380;50.958;3.592;2023-03-14T12:22:36;6.70;89.30
78982;DHT22;68380;50.958;3.592;2023-03-14T12:24:38;6.80;88.40
78982;DHT22;68380;50.958;3.592;2023-03-14T12:27:09;6.60;87.20
78982;DHT22;68380;50.958;3.592;2023-03-14T12:32:25;7.00;90.00
78982;DHT22;68380;50.958;3.592;2023-03-14T12:34:53;6.80;88.30
78982;DHT22;68380;50.958;3.592;2023-03-14T12:37:29;6.90;88.30
78982;DHT22;68380;50.958;3.592;2023-03-14T12:42:41;7.10;85.50
78982;DHT22;68380;50.958;3.592;2023-03-14T12:45:35;7.00;85.20
78982;DHT22;68380;50.958;3.592;2023-03-14T12:48:23;6.90;85.80
78982;DHT22;68380;50.958;3.592;2023-03-14T12:51:01;6.60;86.30
78982;DHT22;68380;50.958;3.592;2023-03-14T12:53:50;6.30;86.30
78982;DHT22;68380;50.958;3.592;2023-03-14T13:04:44;6.30;88.30
78982;DHT22;68380;50.958;3.592;2023-03-14T13:09:55;6.30;88.40
78982;DHT22;68380;50.958;3.592;2023-03-14T13:12:28;6.20;88.30
78982;DHT22;68380;50.958;3.592;2023-03-14T13:14:59;6.10;86.00
78982;DHT22;68380;50.958;3.592;2023-03-14T13:17:33;6.10;86.90
78982;DHT22;68380;50.958;3.592;2023-03-14T13:20:05;6.10;85.70
78982;DHT22;68380;50.958;3.592;2023-03-14T13:22:34;6.20;85.70
78982;DHT22;68380;50.958;3.592;2023-03-14T13:25:06;6.40;83.40
78982;DHT22;68380;50.958;3.592;2023-03-14T13:27:35;6.40;84.50
78982;DHT22;68380;50.958;3.592;2023-03-14T13:30:14;6.70;86.00
78982;DHT22;68380;50.958;3.592;2023-03-14T13:32:44;6.90;85.10
78982;DHT22;68380;50.958;3.592;2023-03-14T13:35:28;6.90;80.70
78982;DHT22;68380;50.958;3.592;2023-03-14T13:38:00;6.80;81.80
78982;DHT22;68380;50.958;3.592;2023-03-14T13:40:33;6.80;81.80
78982;DHT22;68380;50.958;3.592;2023-03-14T13:43:25;6.70;82.40
78982;DHT22;68380;50.958;3.592;2023-03-14T13:46:04;6.80;82.90
78982;DHT22;68380;50.958;3.592;2023-03-14T13:48:35;6.70;82.10
78982;DHT22;68380;50.958;3.592;2023-03-14T13:51:09;6.80;82.70
78982;DHT22;68380;50.958;3.592;2023-03-14T13:53:47;6.90;82.70
78982;DHT22;68380;50.958;3.592;2023-03-14T13:56:21;7.00;73.40
78982;DHT22;68380;50.958;3.592;2023-03-14T13:58:50;6.80;75.60
78982;DHT22;68380;50.958;3.592;2023-03-14T14:01:26;6.50;75.40
78982;DHT22;68380;50.958;3.592;2023-03-14T14:03:56;6.30;74.50
78982;DHT22;68380;50.958;3.592;2023-03-14T14:06:35;6.10;79.30
78982;DHT22;68380;50.958;3.592;2023-03-14T14:09:12;5.90;77.50
78982;DHT22;68380;50.958;3.592;2023-03-14T14:11:58;5.90;75.50
78982;DHT22;68380;50.958;3.592;2023-03-14T14:14:46;5.80;76.00
78982;DHT22;68380;50.958;3.592;2023-03-14T14:17:17;5.70;76.80
78982;DHT22;68380;50.958;3.592;2023-03-14T14:19:46;5.80;76.80
78982;DHT22;68380;50.958;3.592;2023-03-14T14:22:15;5.90;75.20
78982;DHT22;68380;50.958;3.592;2023-03-14T14:24:43;6.00;70.60
78982;DHT22;68380;50.958;3.592;2023-03-14T14:27:36;6.00;72.40
78982;DHT22;68380;50.958;3.592;2023-03-14T14:30:06;6.00;71.80
78982;DHT22;68380;50.958;3.592;2023-03-14T14:32:38;6.10;70.30
78982;DHT22;68380;50.958;3.592;2023-03-14T14:35:08;6.10;71.30
78982;DHT22;68380;50.958;3.592;2023-03-14T14:37:44;6.30;68.70
78982;DHT22;68380;50.958;3.592;2023-03-14T14:40:23;6.40;67.30
78982;DHT22;68380;50.958;3.592;2023-03-14T14:42:51;6.50;68.40
78982;DHT22;68380;50.958;3.592;2023-03-14T14:45:26;6.70;66.10
78982;DHT22;68380;50.958;3.592;2023-03-14T14:47:53;6.60;66.10
78982;DHT22;68380;50.958;3.592;2023-03-14T14:50:29;6.70;66.20
78982;DHT22;68380;50.958;3.592;2023-03-14T14:52:58;6.80;67.80
78982;DHT22;68380;50.958;3.592;2023-03-14T14:55:34;6.90;69.30
78982;DHT22;68380;50.958;3.592;2023-03-14T15:01:02;7.00;66.90
78982;DHT22;68380;50.958;3.592;2023-03-14T15:03:30;6.80;68.90
78982;DHT22;68380;50.958;3.592;2023-03-14T15:05:58;6.90;65.40
78982;DHT22;68380;50.958;3.592;2023-03-14T15:08:27;6.90;64.20
78982;DHT22;68380;50.958;3.592;2023-03-14T15:10:55;7.00;63.60
78982;DHT22;68380;50.958;3.592;2023-03-14T15:13:23;7.00;63.50
78982;DHT22;68380;50.958;3.592;2023-03-14T15:15:52;7.10;63.20
78982;DHT22;68380;50.958;3.592;2023-03-14T15:18:28;7.10;62.80
78982;DHT22;68380;50.958;3.592;2023-03-14T15:20:55;7.10;62.60
78982;DHT22;68380;50.958;3.592;2023-03-14T15:23:22;7.10;61.80
78982;DHT22;68380;50.958;3.592;2023-03-14T15:25:50;7.20;63.90
78982;DHT22;68380;50.958;3.592;2023-03-14T15:28:27;7.30;60.70
78982;DHT22;68380;50.958;3.592;2023-03-14T15:30:54;7.40;68.30
78982;DHT22;68380;50.958;3.592;2023-03-14T15:33:23;7.40;60.80
78982;DHT22;68380;50.958;3.592;2023-03-14T15:35:51;7.10;60.90
78982;DHT22;68380;50.958;3.592;2023-03-14T15:38:21;7.20;65.20
78982;DHT22;68380;50.958;3.592;2023-03-14T15:40:50;7.20;63.60
78982;DHT22;68380;50.958;3.592;2023-03-14T15:43:18;7.20;63.50
78982;DHT22;68380;50.958;3.592;2023-03-14T15:45:46;7.20;67.40
78982;DHT22;68380;50.958;3.592;2023-03-14T15:48:19;7.30;64.70
78982;DHT22;68380;50.958;3.592;2023-03-14T15:50:48;7.40;64.90
78982;DHT22;68380;50.958;3.592;2023-03-14T15:53:15;7.40;65.60
78982;DHT22;68380;50.958;3.592;2023-03-14T15:55:43;7.30;65.30
78982;DHT22;68380;50.958;3.592;2023-03-14T15:58:19;7.40;67.80
78982;DHT22;68380;50.958;3.592;2023-03-14T16:00:48;7.50;66.00
78982;DHT22;68380;50.958;3.592;2023-03-14T16:03:16;7.30;68.10
78982;DHT22;68380;50.958;3.592;2023-03-14T16:05:44;7.30;72.70
78982;DHT22;68380;50.958;3.592;2023-03-14T16:08:12;7.20;66.90
78982;DHT22;68380;50.958;3.592;2023-03-14T16:10:39;7.20;68.00
78982;DHT22;68380;50.958;3.592;2023-03-14T16:13:12;7.20;67.90
78982;DHT22;68380;50.958;3.592;2023-03-14T16:15:40;7.10;69.70
78982;DHT22;68380;50.958;3.592;2023-03-14T16:18:07;7.10;67.90
78982;DHT22;68380;50.958;3.592;2023-03-14T16:20:35;7.20;68.20
78982;DHT22;68380;50.958;3.592;2023-03-14T16:23:03;7.20;67.50
78982;DHT22;68380;50.958;3.592;2023-03-14T16:25:35;7.20;67.00
78982;DHT22;68380;50.958;3.592;2023-03-14T16:28:03;7.10;72.00
78982;DHT22;68380;50.958;3.592;2023-03-14T16:30:33;7.20;67.60
78982;DHT22;68380;50.958;3.592;2023-03-14T16:33:00;7.10;68.90
78982;DHT22;68380;50.958;3.592;2023-03-14T16:35:30;7.00;70.00
78982;DHT22;68380;50.958;3.592;2023-03-14T16:38:00;6.90;68.90
78982;DHT22;68380;50.958;3.592;2023-03-14T16:40:27;6.80;70.30
78982;DHT22;68380;50.958;3.592;2023-03-14T16:42:55;6.90;71.90
78982;DHT22;68380;50.958;3.592;2023-03-14T16:45:23;6.80;72.00
78982;DHT22;68380;50.958;3.592;2023-03-14T16:47:50;6.80;72.20
78982;DHT22;68380;50.958;3.592;2023-03-14T16:50:18;6.80;72.30
78982;DHT22;68380;50.958;3.592;2023-03-14T16:52:46;6.80;71.90
78982;DHT22;68380;50.958;3.592;2023-03-14T16:55:17;6.90;73.70
78982;DHT22;68380;50.958;3.592;2023-03-14T16:57:44;7.10;71.90
78982;DHT22;68380;50.958;3.592;2023-03-14T17:00:13;7.10;73.60
78982;DHT22;68380;50.958;3.592;2023-03-14T17:02:40;7.20;73.90
78982;DHT22;68380;50.958;3.592;2023-03-14T17:05:08;7.10;73.80
78982;DHT22;68380;50.958;3.592;2023-03-14T17:07:36;6.90;73.10
78982;DHT22;68380;50.958;3.592;2023-03-14T17:10:04;7.00;75.20
78982;DHT22;68380;50.958;3.592;2023-03-14T17:12:32;6.90;75.50
78982;DHT22;68380;50.958;3.592;2023-03-14T17:15:00;6.90;76.10
78982;DHT22;68380;50.958;3.592;2023-03-14T17:17:27;7.00;75.40
78982;DHT22;68380;50.958;3.592;2023-03-14T17:19:55;7.00;74.60
78982;DHT22;68380;50.958;3.592;2023-03-14T17:22:23;6.90;77.50
78982;DHT22;68380;50.958;3.592;2023-03-14T17:24:51;6.90;76.20
78982;DHT22;68380;50.958;3.592;2023-03-14T17:27:19;7.00;76.00
78982;DHT22;68380;50.958;3.592;2023-03-14T17:29:47;6.90;76.10
78982;DHT22;68380;50.958;3.592;2023-03-14T17:32:16;6.80;76.80
78982;DHT22;68380;50.958;3.592;2023-03-14T17:34:44;6.90;76.50
78982;DHT22;68380;50.958;3.592;2023-03-14T17:37:12;6.70;76.10
78982;DHT22;68380;50.958;3.592;2023-03-14T17:39:40;6.80;77.60
78982;DHT22;68380;50.958;3.592;2023-03-14T17:42:08;6.90;76.30
78982;DHT22;68380;50.958;3.592;2023-03-14T17:44:35;6.80;77.40
78982;DHT22;68380;50.958;3.592;2023-03-14T17:47:04;6.60;77.10
78982;DHT22;68380;50.958;3.592;2023-03-14T17:49:32;6.60;77.50
78982;DHT22;68380;50.958;3.592;2023-03-14T17:52:00;6.50;77.00
78982;DHT22;68380;50.958;3.592;2023-03-14T17:54:28;6.60;76.70
78982;DHT22;68380;50.958;3.592;2023-03-14T17:56:55;6.60;76.60
78982;DHT22;68380;50.958;3.592;2023-03-14T17:59:23;6.60;76.60
78982;DHT22;68380;50.958;3.592;2023-03-14T18:01:51;6.50;76.00
78982;DHT22;68380;50.958;3.592;2023-03-14T18:04:19;6.40;76.40
78982;DHT22;68380;50.958;3.592;2023-03-14T18:06:48;6.40;76.70
78982;DHT22;68380;50.958;3.592;2023-03-14T18:09:16;6.30;77.20
78982;DHT22;68380;50.958;3.592;2023-03-14T18:11:44;6.40;78.00
78982;DHT22;68380;50.958;3.592;2023-03-14T18:14:12;6.20;77.20
78982;DHT22;68380;50.958;3.592;2023-03-14T18:16:41;6.00;78.20
78982;DHT22;68380;50.958;3.592;2023-03-14T18:19:11;5.80;79.00
78982;DHT22;68380;50.958;3.592;2023-03-14T18:21:38;5.60;79.80
78982;DHT22;68380;50.958;3.592;2023-03-14T18:24:07;5.70;80.30
78982;DHT22;68380;50.958;3.592;2023-03-14T18:26:35;5.90;79.20
78982;DHT22;68380;50.958;3.592;2023-03-14T18:29:02;6.10;78.80
78982;DHT22;68380;50.958;3.592;2023-03-14T18:31:30;6.20;77.30
78982;DHT22;68380;50.958;3.592;2023-03-14T18:34:01;6.30;76.90
78982;DHT22;68380;50.958;3.592;2023-03-14T18:36:28;6.10;77.40
78982;DHT22;68380;50.958;3.592;2023-03-14T18:38:56;6.00;78.50
78982;DHT22;68380;50.958;3.592;2023-03-14T18:41:25;5.90;78.70
78982;DHT22;68380;50.958;3.592;2023-03-14T18:43:53;6.00;78.00
78982;DHT22;68380;50.958;3.592;2023-03-14T18:46:21;6.10;77.70
78982;DHT22;68380;50.958;3.592;2023-03-14T18:48:49;6.20;77.10
78982;DHT22;68380;50.958;3.592;2023-03-14T18:51:18;6.30;76.70
78982;DHT22;68380;50.958;3.592;2023-03-14T18:53:46;6.10;77.80
78982;DHT22;68380;50.958;3.592;2023-03-14T18:56:14;6.00;78.50
78982;DHT22;68380;50.958;3.592;2023-03-14T18:58:41;5.90;79.40
78982;DHT22;68380;50.958;3.592;2023-03-14T19:01:10;6.00;77.30
78982;DHT22;68380;50.958;3.592;2023-03-14T19:03:39;6.10;77.80
78982;DHT22;68380;50.958;3.592;2023-03-14T19:06:08;6.20;77.50
78982;DHT22;68380;50.958;3.592;2023-03-14T19:08:37;6.20;77.30
78982;DHT22;68380;50.958;3.592;2023-03-14T19:11:07;6.20;77.20
78982;DHT22;68380;50.958;3.592;2023-03-14T19:13:36;5.80;79.90
78982;DHT22;68380;50.958;3.592;2023-03-14T19:16:04;5.60;79.90
78982;DHT22;68380;50.958;3.592;2023-03-14T19:18:33;5.60;80.80
78982;DHT22;68380;50.958;3.592;2023-03-14T19:21:04;5.50;81.30
78982;DHT22;68380;50.958;3.592;2023-03-14T19:23:33;5.60;79.80
78982;DHT22;68380;50.958;3.592;2023-03-14T19:26:01;5.80;80.00
78982;DHT22;68380;50.958;3.592;2023-03-14T19:28:29;5.80;80.50
78982;DHT22;68380;50.958;3.592;2023-03-14T19:31:00;5.70;80.80
78982;DHT22;68380;50.958;3.592;2023-03-14T19:33:29;5.70;80.50
78982;DHT22;68380;50.958;3.592;2023-03-14T19:35:57;5.90;80.60
78982;DHT22;68380;50.958;3.592;2023-03-14T19:38:27;6.00;80.20
78982;DHT22;68380;50.958;3.592;2023-03-14T19:40:56;6.00;79.60
78982;DHT22;68380;50.958;3.592;2023-03-14T19:43:25;6.10;79.90
78982;DHT22;68380;50.958;3.592;2023-03-14T19:45:54;6.10;80.20
78982;DHT22;68380;50.958;3.592;2023-03-14T19:48:21;6.00;78.40
78982;DHT22;68380;50.958;3.592;2023-03-14T19:50:51;5.80;77.20
78982;DHT22;68380;50.958;3.592;2023-03-14T19:53:18;5.80;79.80
78982;DHT22;68380;50.958;3.592;2023-03-14T19:55:46;5.70;79.40
78982;DHT22;68380;50.958;3.592;2023-03-14T19:58:15;5.50;80.60
78982;DHT22;68380;50.958;3.592;2023-03-14T20:00:43;5.60;80.60
78982;DHT22;68380;50.958;3.592;2023-03-14T20:03:14;5.60;81.30
78982;DHT22;68380;50.958;3.592;2023-03-14T20:05:42;5.40;82.90
78982;DHT22;68380;50.958;3.592;2023-03-14T20:08:12;5.60;82.10
78982;DHT22;68380;50.958;3.592;2023-03-14T20:10:40;5.60;82.00
78982;DHT22;68380;50.958;3.592;2023-03-14T20:13:08;5.70;81.90
78982;DHT22;68380;50.958;3.592;2023-03-14T20:15:35;5.60;82.60
78982;DHT22;68380;50.958;3.592;2023-03-14T20:18:04;5.70;81.10
78982;DHT22;68380;50.958;3.592;2023-03-14T20:20:32;5.80;80.70
78982;DHT22;68380;50.958;3.592;2023-03-14T20:23:00;5.60;82.40
78982;DHT22;68380;50.958;3.592;2023-03-14T20:25:28;5.40;83.20
78982;DHT22;68380;50.958;3.592;2023-03-14T20:27:55;5.40;83.10
78982;DHT22;68380;50.958;3.592;2023-03-14T20:30:23;5.50;81.20
78982;DHT22;68380;50.958;3.592;2023-03-14T20:32:51;5.50;81.90
78982;DHT22;68380;50.958;3.592;2023-03-14T20:35:19;5.60;81.70
78982;DHT22;68380;50.958;3.592;2023-03-14T20:37:51;5.60;81.00
78982;DHT22;68380;50.958;3.592;2023-03-14T20:40:20;5.60;79.70
78982;DHT22;68380;50.958;3.592;2023-03-14T20:42:49;5.60;80.80
78982;DHT22;68380;50.958;3.592;2023-03-14T20:45:17;5.40;81.40
78982;DHT22;68380;50.958;3.592;2023-03-14T20:47:45;5.30;82.20
78982;DHT22;68380;50.958;3.592;2023-03-14T20:50:12;5.20;83.30
78982;DHT22;68380;50.958;3.592;2023-03-14T20:52:40;5.30;81.70
78982;DHT22;68380;50.958;3.592;2023-03-14T20:55:09;5.40;80.40
78982;DHT22;68380;50.958;3.592;2023-03-14T20:57:37;5.50;80.60
78982;DHT22;68380;50.958;3.592;2023-03-14T21:00:05;5.30;81.50
78982;DHT22;68380;50.958;3.592;2023-03-14T21:02:33;5.20;82.30
78982;DHT22;68380;50.958;3.592;2023-03-14T21:05:02;5.20;81.30
78982;DHT22;68380;50.958;3.592;2023-03-14T21:07:31;5.00;81.80
78982;DHT22;68380;50.958;3.592;2023-03-14T21:10:03;5.00;81.60
78982;DHT22;68380;50.958;3.592;2023-03-14T21:12:31;4.90;82.10
78982;DHT22;68380;50.958;3.592;2023-03-14T21:14:59;4.90;83.10
78982;DHT22;68380;50.958;3.592;2023-03-14T21:17:27;5.00;81.70
78982;DHT22;68380;50.958;3.592;2023-03-14T21:19:55;5.10;81.30
78982;DHT22;68380;50.958;3.592;2023-03-14T21:22:25;5.00;81.30
78982;DHT22;68380;50.958;3.592;2023-03-14T21:24:55;5.00;81.90
78982;DHT22;68380;50.958;3.592;2023-03-14T21:27:23;5.00;82.20
78982;DHT22;68380;50.958;3.592;2023-03-14T21:29:51;4.90;82.60
78982;DHT22;68380;50.958;3.592;2023-03-14T21:32:19;4.90;82.70
78982;DHT22;68380;50.958;3.592;2023-03-14T21:34:47;4.90;82.50
78982;DHT22;68380;50.958;3.592;2023-03-14T21:37:16;4.90;83.30
78982;DHT22;68380;50.958;3.592;2023-03-14T21:39:43;5.00;82.40
78982;DHT22;68380;50.958;3.592;2023-03-14T21:42:11;5.20;82.10
78982;DHT22;68380;50.958;3.592;2023-03-14T21:44:39;5.30;82.40
78982;DHT22;68380;50.958;3.592;2023-03-14T21:49:46;5.10;83.40
78982;DHT22;68380;50.958;3.592;2023-03-14T21:52:14;5.10;82.60
78982;DHT22;68380;50.958;3.592;2023-03-14T21:54:41;5.20;82.60
78982;DHT22;68380;50.958;3.592;2023-03-14T21:57:09;5.10;83.20
78982;DHT22;68380;50.958;3.592;2023-03-14T22:02:58;5.40;82.00
78982;DHT22;68380;50.958;3.592;2023-03-14T22:09:01;5.30;83.30
78982;DHT22;68380;50.958;3.592;2023-03-14T22:14:54;5.10;83.70
78982;DHT22;68380;50.958;3.592;2023-03-14T22:17:22;5.10;82.80
78982;DHT22;68380;50.958;3.592;2023-03-14T22:19:50;5.10;82.70
78982;DHT22;68380;50.958;3.592;2023-03-14T22:25:46;5.10;83.10
78982;DHT22;68380;50.958;3.592;2023-03-14T22:31:20;5.10;83.90
78982;DHT22;68380;50.958;3.592;2023-03-14T22:33:48;5.10;83.60
78982;DHT22;68380;50.958;3.592;2023-03-14T22:36:23;5.10;83.40
78982;DHT22;68380;50.958;3.592;2023-03-14T22:42:12;5.20;84.00
78982;DHT22;68380;50.958;3.592;2023-03-14T22:48:11;5.20;84.40
78982;DHT22;68380;50.958;3.592;2023-03-14T22:50:40;5.30;83.30
78982;DHT22;68380;50.958;3.592;2023-03-14T22:53:08;5.30;83.50
78982;DHT22;68380;50.958;3.592;2023-03-14T22:55:35;5.30;84.70
78982;DHT22;68380;50.958;3.592;2023-03-14T22:58:05;5.30;83.90
78982;DHT22;68380;50.958;3.592;2023-03-14T23:00:32;5.40;83.10
78982;DHT22;68380;50.958;3.592;2023-03-14T23:03:00;5.50;83.00
78982;DHT22;68380;50.958;3.592;2023-03-14T23:05:33;5.70;81.80
78982;DHT22;68380;50.958;3.592;2023-03-14T23:08:00;5.60;82.20
78982;DHT22;68380;50.958;3.592;2023-03-14T23:10:28;5.50;83.60
78982;DHT22;68380;50.958;3.592;2023-03-14T23:13:00;5.60;82.60
78982;DHT22;68380;50.958;3.592;2023-03-14T23:22:26;5.70;82.90
78982;DHT22;68380;50.958;3.592;2023-03-14T23:24:55;5.90;82.40
78982;DHT22;68380;50.958;3.592;2023-03-14T23:27:41;5.80;82.50
78982;DHT22;68380;50.958;3.592;2023-03-14T23:30:14;5.80;82.40
78982;DHT22;68380;50.958;3.592;2023-03-14T23:32:42;5.60;82.80
78982;DHT22;68380;50.958;3.592;2023-03-14T23:35:12;5.60;82.90